Startpagina
METAR-TAF:

METAR-TAF

Vliegvelden :

Pointe-Noire, Congo

Luchthaven Pointe-Noire

breedte: 04-49S, lengte: 011-54E, hoogte: 17 m

Actueel weer

Dit bericht is 1 uur en het 19 minuten geleden gemaakt, om 12:00 UTC
Wind 8 kt uit het zuidzuidwesten
Temperatuur 28°C
Vochtigheid 70%
Druk 1014 hPa
Zicht 10 km of meer
Verspreide wolken op 1500 ft
Gebroken wolken op 2600 ft

METAR: FCPP 191200Z 20008KT 9999 SCT015 BKN026 28/22 Q1014 NOSIG

Tijdstip: 14:19 (13:19 UTC)

Verwachting

Dit bericht is 2 uur en het 19 minuten geleden gemaakt, om 11:00 UTC
Verwachting geldig van 19 om 12 UTC tot 20 om 12 UTC
Wind 10 kt uit het zuidzuidwesten
Zicht 10 km of meer
Weinig wolken op 1500 ft
Gebroken wolken op 2600 ft
Kans 30%
van 20 om 05 UTC tot 20 om 08 UTC
Zicht: 4000 m
nevel

TAF: FCPP 191100Z 1912/2012 20010KT 9999 FEW015 BKN026 PROB30 2005/2008 4000 BR

Waarnemingen en weersverwachtingen van meer dan 4000 vliegvelden (METAR en TAF).

De beschikbare stations zijn de gele en rode punten op de kaart.

Ga met uw muis naar het station om de naam te zien.

Klik dan om waarnemingen en weersverwachtingen te zien.

kaart wijzigen: klik op de groene knoppen met een zwart kruis om in te zoomen, op de groene knop met een streepje om uit te zoomen of op de groene pijlen voor aangrenzende kaarten.


METAR-TAF: